Carlisle, United Kingdom

6:23 AM GMT on December 18, 2014 (GMT +0000)
Brampton, Cumbria | Change Station
CLOSE
Current Station
Personal Weather Station
Location: Brampton, CUMBRIA
Elevation: 390 ft
Nearby Weather Stations

Elev 390 ft 54.94 °N, 2.73 °W | Updated 0 second ago

Mostly Cloudy
Mostly Cloudy
51.6 °F
Feels Like 51.6 °F
N
20.0
Wind Variable Wind from WSW
Gusts 25.0 mph

Today
High -- | Low -- °F
--% Chance of Precip.
Yesterday
High -- | Low -- °F
Precip. -- in
8:31 AM 3:43 PM
Waning Crescent, 17% visible
Pressure 29.44 in
Visibility 6.2 miles
Clouds Mostly Cloudy 1800 ft
Dew Point 50 °F
Humidity 93%
Rainfall 0.00 in
Snow Depth Not available.
UV 0 out of 12
Pollen Not available.
Air Quality Not available.
Flu Activity Not available.
METAR EGNT 180550Z 24014KT 9999 VCSH BKN018 12/10 Q0997

More Conditions Fewer Conditions

Pressure 29.44 in
Visibility 6.2 miles
Clouds Mostly Cloudy 1800 ft
Dew Point 50 °F
Humidity 93%
Rainfall 0.00 in
Snow Depth Not available.
UV 0 out of 12
Pollen Not available.
Air Quality Not available.
Flu Activity Not available.
METAR EGNT 180550Z 24014KT 9999 VCSH BKN018 12/10 Q0997

More Conditions Fewer Conditions

10-Day Weather Forecast

Almanac

Astronomy

Dec. 18, 2014 Rise Set
Actual Time
Civil Twilight
Nautical Twilight
Astronomical Twilight
Moon
Length of Visible Light
Length of Day
Tomorrow will be .
, % of the Moon is Illuminated

Today's Extremes

Country Highs Country Lows

Community

WunderPhotos

Upload Photos

1,778,896 photos uploaded!

WunderBlogs® & News

Nearby

Air Quality

  Air Quality AQ Index Pollutant
Not available.

Snow Depth

Station Depth Elevation

Earthquake Activity

City Distance Mag. Time & Date
Minimum magnitude displayed is 2.5.

Coastal Water Temperatures

Place Temperature

Nearby Weather Stations